Flight Track Log - Related Links

Times and Time Zones

All times are in EDT time to prevent confusion due to time zone crossing. See the XOJ548 flight status page for this flight to view local times or setup timezone preferences in your user account.

Time Position Orientation Groundspeed Altitude Reporting Facility
EDT Latitude Longitude Course Direction KTS MPH feet Rate Location/Type
Sun 08:54:08 PM 33.9333 -84.2667 253° West 211 243 4,200  Level Atlanta TRACON
Sun 08:55:02 PM 33.9833 -84.3167 320° Northwest 253 291 7,400 3,526 Climbing Atlanta TRACON
Sun 08:56:02 PM 34.0000 -84.4000 284° West 266 306 10,900 2,700 Climbing Atlanta TRACON
Sun 08:56:22 PM 34.0067 -84.4247 288° West 278 320 11,000 1,575 Climbing Atlanta Center
Sun 08:57:22 PM 33.9833 -84.5197 254° West 322 371 13,000 1,850 Climbing Atlanta Center
Sun 08:58:22 PM 33.9142 -84.5894 220° Southwest 328 377 14,700 2,150 Climbing Atlanta Center
Sun 08:59:00 PM 33.7180 -85.1112 253° West  Level FlightAware Approximate
Sun 08:59:22 PM 33.8803 -84.6569 239° Southwest 319 367 17,300  Level Atlanta Center
Sun 09:00:22 PM 33.8694 -84.7669 263° West 299 344 20,500 3,550 Climbing Atlanta Center
Sun 09:01:22 PM 33.8622 -84.8869 266° West 312 359 24,400 3,200 Climbing Atlanta Center
Sun 09:02:22 PM 33.8533 -84.9844 264° West 312 359 26,900 2,300 Climbing Atlanta Center
Sun 09:03:22 PM 33.8464 -85.0744 265° West 312 359 29,000 2,300 Climbing Atlanta Center
Sun 09:04:22 PM 33.8683 -85.1747 285° West 307 353 31,500 2,150 Climbing Atlanta Center
Sun 09:05:22 PM 33.8925 -85.2675 287° West 307 353 33,300 1,500 Climbing Atlanta Center
Sun 09:06:22 PM 33.9186 -85.3656 288° West 302 348 34,500 1,200 Climbing Atlanta Center
Sun 09:07:22 PM 33.9467 -85.4711 288° West 318 366 35,700 1,200 Climbing Atlanta Center
Sun 09:08:22 PM 33.9725 -85.5717 287° West 323 372 36,900 1,200 Climbing Atlanta Center
Sun 09:09:22 PM 34.0025 -85.6850 288° West 328 377 38,100 1,100 Climbing Atlanta Center
Sun 09:10:22 PM 34.0281 -85.7908 286° West 328 377 39,100 850 Climbing Atlanta Center
Sun 09:11:22 PM 34.0517 -85.8867 287° West 321 369 39,800 650 Climbing Atlanta Center
Sun 09:12:22 PM 34.0794 -85.9925 288° West 326 375 40,400 550 Climbing Atlanta Center
Sun 09:13:22 PM 34.1067 -86.1011 287° West 326 375 40,900 450 Climbing Atlanta Center
Sun 09:14:22 PM 34.1342 -86.2122 287° West 338 389 41,300 350 Climbing Atlanta Center
Sun 09:15:22 PM 34.1633 -86.3233 288° West 343 395 41,600 300 Climbing Atlanta Center
Sun 09:16:22 PM 34.1925 -86.4372 287° West 348 400 41,900 300 Climbing Atlanta Center
Sun 09:17:22 PM 34.2194 -86.5533 286° West 348 400 42,200 300 Climbing Atlanta Center
Sun 09:18:22 PM 34.2503 -86.6700 288° West 353 406 42,500 323 Climbing Atlanta Center
Sun 09:19:32 PM 34.2828 -86.8103 286° West 387 445 42,900 231 Climbing Memphis Center
Sun 09:20:32 PM 34.3089 -86.9222 286° West 387 445 43,000 50 Climbing Memphis Center
Sun 09:21:32 PM 34.3392 -87.0394 287° West 377 434 43,000  Level Memphis Center
Sun 09:22:32 PM 34.3675 -87.1642 285° West 377 434 43,000  Level Memphis Center
Sun 09:23:32 PM 34.3997 -87.2836 288° West 371 427 43,000  Level Memphis Center
Sun 09:24:32 PM 34.4297 -87.4086 286° West 377 434 43,000  Level Memphis Center
Sun 09:25:32 PM 34.4597 -87.5358 286° West 384 442 43,000  Level Memphis Center
Sun 09:26:32 PM 34.4942 -87.6733 287° West 384 442 43,000  Level Memphis Center
Sun 09:27:32 PM 34.5239 -87.7986 286° West 384 442 43,000  Level Memphis Center
Sun 09:28:32 PM 34.5536 -87.9261 286° West 395 455 43,000  Level Memphis Center
Sun 09:29:32 PM 34.5811 -88.0514 285° West 395 455 43,000  Level Memphis Center
Sun 09:30:32 PM 34.6106 -88.1744 286° West 400 460 43,000  Level Memphis Center
Sun 09:31:32 PM 34.6378 -88.3025 285° West 400 460 43,000  Level Memphis Center
Sun 09:32:32 PM 34.6689 -88.4303 287° West 400 460 43,000  Level Memphis Center
Sun 09:33:32 PM 34.7000 -88.5636 286° West 383 441 43,000  Level Memphis Center
Sun 09:34:32 PM 34.7269 -88.6894 285° West 383 441 43,000  Level Memphis Center
Sun 09:35:32 PM 34.7533 -88.8025 286° West 388 447 43,000  Level Memphis Center
Sun 09:36:32 PM 34.7842 -88.9336 286° West 393 452 43,000  Level Memphis Center
Sun 09:37:32 PM 34.8128 -89.0569 286° West 393 452 43,000  Level Memphis Center
Sun 09:38:32 PM 34.8392 -89.1856 284° West 393 452 43,000  Level Memphis Center
Sun 09:39:32 PM 34.8694 -89.3067 287° West 393 452 43,000  Level Memphis Center
Sun 09:40:32 PM 34.8975 -89.4356 285° West 393 452 43,000  Level Memphis Center
Sun 09:41:32 PM 34.9256 -89.5567 286° West 387 445 43,000  Level Memphis Center
Sun 09:42:32 PM 34.9492 -89.6983 282° West 387 445 43,000  Level Memphis Center
Sun 09:43:32 PM 34.9853 -89.8172 290° West 399 459 43,000  Level Memphis Center
Sun 09:44:32 PM 35.0108 -89.9464 284° West 405 466 43,000  Level Memphis Center
Sun 09:45:32 PM 35.0467 -90.0678 290° West 392 451 43,000  Level Memphis Center
Sun 09:46:32 PM 35.0844 -90.1922 290° West 387 445 43,000  Level Memphis Center
Sun 09:47:32 PM 35.1222 -90.3139 291° West 387 445 43,000  Level Memphis Center
Sun 09:48:32 PM 35.1639 -90.4486 291° West 392 451 43,000  Level Memphis Center
Sun 09:49:32 PM 35.2053 -90.5731 292° West 392 451 43,000  Level Memphis Center
Sun 09:50:32 PM 35.2406 -90.6978 289° West 392 451 43,000  Level Memphis Center
Sun 09:51:32 PM 35.2819 -90.8250 292° West 392 451 43,000  Level Memphis Center
Sun 09:52:32 PM 35.3189 -90.9475 290° West 392 451 43,000  Level Memphis Center
Sun 09:53:32 PM 35.3578 -91.0700 291° West 392 451 43,000  Level Memphis Center
Sun 09:54:32 PM 35.3967 -91.1900 292° West 392 451 43,000  Level Memphis Center
Sun 09:55:32 PM 35.4333 -91.3228 289° West 397 457 43,000  Level Memphis Center
Sun 09:56:32 PM 35.4700 -91.4431 291° West 397 457 43,000  Level Memphis Center
Sun 09:57:32 PM 35.5106 -91.5736 291° West 392 451 43,000  Level Memphis Center
Sun 09:58:32 PM 35.5489 -91.6992 291° West 397 457 43,000  Level Memphis Center
Sun 09:59:32 PM 35.5869 -91.8275 290° West 397 457 43,000  Level Memphis Center
Sun 10:00:32 PM 35.6250 -91.9533 290° West 397 457 43,000  Level Memphis Center
Sun 10:01:32 PM 35.6631 -92.0819 290° West 397 457 43,000  Level Memphis Center
Sun 10:02:32 PM 35.6986 -92.2078 289° West 397 457 43,000  Level Memphis Center
Sun 10:03:32 PM 35.7386 -92.3342 291° West 392 451 43,000  Level Memphis Center
Sun 10:04:32 PM 35.7739 -92.4628 289° West 392 451 43,000  Level Memphis Center
Sun 10:05:32 PM 35.8114 -92.5892 290° West 392 451 43,000  Level Memphis Center
Sun 10:06:32 PM 35.8486 -92.7156 290° West 392 451 43,000  Level Memphis Center
Sun 10:07:32 PM 35.8858 -92.8447 290° West 392 451 43,000  Level Memphis Center
Sun 10:08:32 PM 35.9228 -92.9742 289° West 392 451 43,000  Level Memphis Center
Sun 10:09:32 PM 35.9578 -93.0931 290° West 402 463 43,000  Level Memphis Center
Sun 10:10:32 PM 35.9944 -93.2200 290° West 402 463 43,000 200 Level Memphis Center
Sun 10:11:32 PM 36.0225 -93.3544 285° West 407 468 43,400 450 Climbing Memphis Center
Sun 10:12:32 PM 36.0464 -93.4889 282° West 402 463 43,900 450 Climbing Memphis Center
Sun 10:13:32 PM 36.0722 -93.6208 284° West 396 456 44,300 400 Climbing Memphis Center
Sun 10:14:32 PM 36.0981 -93.7478 284° West 391 450 44,700 350 Climbing Memphis Center
Sun 10:15:32 PM 36.1194 -93.8769 282° West 391 450 45,000 150 Climbing Memphis Center
Sun 10:16:32 PM 36.1450 -94.0067 284° West 391 450 45,000  Level Memphis Center
Sun 10:17:32 PM 36.1678 -94.1492 281° West 391 450 45,000  Level Memphis Center
Sun 10:19:27 PM 36.2153 -94.3897 284° West 394 453 45,000  Level Kansas City Center
Sun 10:20:28 PM 36.2381 -94.5236 282° West 397 457 45,000  Level Kansas City Center
Sun 10:21:29 PM 36.2619 -94.6589 282° West 400 460 45,000  Level Kansas City Center
Sun 10:22:31 PM 36.2861 -94.7953 282° West 403 464 45,000  Level Kansas City Center
Sun 10:23:32 PM 36.3103 -94.9325 282° West 406 467 45,000  Level Kansas City Center
Sun 10:24:33 PM 36.3339 -95.0711 282° West 408 470 45,000  Level Kansas City Center
Sun 10:25:34 PM 36.3597 -95.2233 282° West 405 466 45,000  Level Kansas City Center
Sun 10:26:35 PM 36.3836 -95.3617 282° West 409 471 45,000  Level Kansas City Center
Sun 10:27:36 PM 36.4069 -95.5000 282° West 410 472 45,000  Level Kansas City Center
Sun 10:28:38 PM 36.4306 -95.6400 282° West 413 475 45,000  Level Kansas City Center
Sun 10:29:39 PM 36.4553 -95.7819 282° West 415 478 45,000  Level Kansas City Center
Sun 10:30:40 PM 36.4778 -95.9231 281° West 417 480 45,000  Level Kansas City Center
Sun 10:31:41 PM 36.5053 -96.0903 282° West 414 476 45,000  Level Kansas City Center
Sun 10:32:42 PM 36.5292 -96.2300 282° West 413 475 45,000  Level Kansas City Center
Sun 10:33:44 PM 36.5517 -96.3706 281° West 413 475 45,000  Level Kansas City Center
Sun 10:34:45 PM 36.5758 -96.5114 282° West 415 478 45,000  Level Kansas City Center
Sun 10:35:46 PM 36.5964 -96.6525 280° West 415 478 45,000  Level Kansas City Center
Sun 10:36:47 PM 36.6206 -96.7925 282° West 414 476 45,000  Level Kansas City Center
Sun 10:37:48 PM 36.6408 -96.9333 280° West 413 475 45,000  Level Kansas City Center
Sun 10:38:49 PM 36.6631 -97.0747 281° West 414 476 45,000  Level Kansas City Center
Sun 10:39:50 PM 36.6844 -97.2083 281° West 417 480 45,000  Level Kansas City Center
Sun 10:40:52 PM 36.7097 -97.3778 281° West 417 480 45,000  Level Kansas City Center
Sun 10:41:53 PM 36.7311 -97.5200 281° West 418 481 45,000  Level Kansas City Center
Sun 10:42:54 PM 36.7519 -97.6656 280° West 421 484 45,000  Level Kansas City Center
Sun 10:43:55 PM 36.7706 -97.7900 281° West 418 481 45,000  Level Kansas City Center
Sun 10:44:56 PM 36.7925 -97.9336 281° West 418 481 45,000  Level Kansas City Center
Sun 10:45:57 PM 36.8169 -98.1053 280° West 420 483 45,000  Level Kansas City Center
Sun 10:46:58 PM 36.8356 -98.2358 280° West 419 482 45,000  Level Kansas City Center
Sun 10:47:59 PM 36.8567 -98.3808 280° West 421 484 45,000  Level Kansas City Center
Sun 10:49:00 PM 36.8781 -98.5328 280° West 418 481 45,000  Level Kansas City Center
Sun 10:50:01 PM 36.8992 -98.6792 280° West 422 486 45,000  Level Kansas City Center
Sun 10:51:02 PM 36.9200 -98.8247 280° West 425 489 45,000  Level Kansas City Center
Sun 10:52:03 PM 36.9386 -98.9658 279° West 422 486 45,000  Level Kansas City Center
Sun 10:53:04 PM 36.9581 -99.1092 280° West 419 482 45,000  Level Kansas City Center
Sun 10:54:05 PM 36.9781 -99.2553 280° West 425 489 45,000  Level Kansas City Center
Sun 10:55:06 PM 36.9975 -99.4000 280° West 425 489 45,000  Level Kansas City Center
Sun 10:56:07 PM 37.0175 -99.5444 280° West 423 487 45,000  Level Kansas City Center
Sun 10:57:08 PM 37.0369 -99.6978 279° West 427 491 45,000  Level Kansas City Center
Sun 10:58:09 PM 37.0597 -99.8617 280° West 428 493 45,000  Level Kansas City Center
Sun 10:59:11 PM 37.0769 -100.0044 279° West 431 496 45,000  Level Kansas City Center
Sun 11:00:12 PM 37.0983 -100.1708 279° West 433 498 45,000  Level Kansas City Center
Sun 11:01:13 PM 37.1167 -100.3139 279° West 433 498 45,000  Level Kansas City Center
Sun 11:02:14 PM 37.1342 -100.4567 279° West 432 497 45,000  Level Kansas City Center
Sun 11:03:15 PM 37.1561 -100.6261 279° West 438 504 45,000  Level Kansas City Center
Sun 11:04:16 PM 37.1733 -100.7708 279° West 437 503 45,000  Level Kansas City Center
Sun 11:05:17 PM 37.1917 -100.9169 279° West 439 505 45,000  Level Kansas City Center
Sun 11:06:18 PM 37.2114 -101.0875 278° West 440 506 45,000  Level Kansas City Center
Sun 11:07:18 PM 37.2292 -101.2350 279° West 443 510 45,000  Level Kansas City Center
Sun 11:08:19 PM 37.2469 -101.3822 279° West 444 511 45,000  Level Kansas City Center
Sun 11:09:20 PM 37.2664 -101.5531 278° West 442 509 45,000  Level Kansas City Center
Sun 11:10:21 PM 37.2836 -101.7000 278° West 443 510 45,000  Level Kansas City Center
Sun 11:11:22 PM 37.2997 -101.8472 278° West 444 511 45,000  Level Kansas City Center
Sun 11:12:23 PM 37.3192 -102.0178 278° West 443 510 45,000  Level Kansas City Center
Sun 11:13:24 PM 37.3347 -102.1625 278° West 440 506 45,000  Level Kansas City Center
Sun 11:14:13 PM 37.3481 -102.2858 278° West 443 510 45,000  Level Albuquerque Center
Sun 11:15:14 PM 37.3631 -102.4322 277° West 443 510 45,000  Level Albuquerque Center
Sun 11:16:15 PM 37.3819 -102.6033 278° West 443 510 45,000  Level Albuquerque Center
Sun 11:17:17 PM 37.3975 -102.7494 278° West 442 509 45,000  Level Albuquerque Center
Sun 11:18:18 PM 37.4158 -102.9211 278° West 443 510 45,000  Level Albuquerque Center
Sun 11:19:19 PM 37.4311 -103.0672 278° West 442 509 45,000  Level Albuquerque Center
Sun 11:20:20 PM 37.4461 -103.2142 277° West 442 509 45,000  Level Albuquerque Center
Sun 11:21:22 PM 37.4636 -103.3856 277° West 442 509 45,000  Level Albuquerque Center
Sun 11:22:23 PM 37.4778 -103.5331 277° West 443 510 45,000  Level Albuquerque Center
Sun 11:23:24 PM 37.4919 -103.6806 277° West 443 510 45,000  Level Albuquerque Center
Sun 11:24:26 PM 37.5072 -103.8394 277° West 445 512 45,000  Level Albuquerque Center
Sun 11:25:27 PM 37.5211 -103.9964 276° West 448 516 45,000  Level Albuquerque Center
Sun 11:26:40 PM 37.5386 -104.1894 277° West 450 518 45,000  Level Denver Center
Sun 11:27:41 PM 37.5556 -104.3622 277° West 446 513 45,000  Level Denver Center
Sun 11:28:42 PM 37.5692 -104.5103 277° West 445 512 45,000  Level Denver Center
Sun 11:29:43 PM 37.5844 -104.6836 276° West 446 513 45,000  Level Denver Center
Sun 11:30:45 PM 37.5981 -104.8331 277° West 447 514 45,000  Level Denver Center
Sun 11:31:46 PM 37.6103 -104.9839 276° West 450 518 45,000  Level Denver Center
Sun 11:32:47 PM 37.6256 -105.1592 276° West 451 519 45,000  Level Denver Center
Sun 11:33:48 PM 37.6381 -105.3092 276° West 449 517 45,000  Level Denver Center
Sun 11:34:49 PM 37.6497 -105.4597 276° West 451 519 45,000  Level Denver Center
Sun 11:35:50 PM 37.6644 -105.6361 276° West 451 519 45,000  Level Denver Center
Sun 11:36:51 PM 37.6767 -105.7869 276° West 453 521 45,000  Level Denver Center
Sun 11:37:52 PM 37.6881 -105.9389 275° West 454 522 45,000  Level Denver Center
Sun 11:38:53 PM 37.7019 -106.1147 276° West 452 520 45,000  Level Denver Center
Sun 11:39:54 PM 37.7136 -106.2794 275° West 452 520 45,000  Level Denver Center
Sun 11:41:07 PM 37.7247 -106.4308 275° West 452 520 45,000  Level Denver Center
Sun 11:42:08 PM 37.7386 -106.6317 275° West 450 518 45,000  Level Denver Center
Sun 11:43:09 PM 37.7503 -106.7839 276° West 454 522 45,000  Level Denver Center
Sun 11:44:11 PM 37.7611 -106.9358 275° West 454 522 45,000  Level Denver Center
Sun 11:45:12 PM 37.7722 -107.1144 275° West 457 526 45,000  Level Denver Center
Sun 11:46:13 PM 37.7831 -107.2700 275° West 462 532 45,000 -344 Level Denver Center
Sun 11:47:14 PM 37.7919 -107.4244 274° West 462 532 44,300 -738 Descending Denver Center
Sun 11:48:15 PM 37.8031 -107.6072 274° West 467 537 43,500 -639 Descending Denver Center
Sun 11:49:16 PM 37.8133 -107.7681 275° West 477 549 43,000 -246 Descending Denver Center
Sun 11:50:17 PM 37.8264 -107.9589 275° West 485 558 43,000  Level Denver Center
Sun 11:51:18 PM 37.8356 -108.1222 274° West 487 560 43,000  Level Denver Center
Sun 11:52:19 PM 37.8456 -108.2833 275° West 484 557 43,000  Level Denver Center
Sun 11:53:20 PM 37.8556 -108.4764 274° West 491 565 43,000  Level Denver Center
Sun 11:54:21 PM 37.8644 -108.6381 274° West 486 559 43,000  Level Denver Center
Sun 11:55:22 PM 37.8717 -108.7739 274° West 486 559 43,000  Level Denver Center
Sun 11:56:23 PM 37.8836 -108.9886 274° West 482 555 43,000  Level Denver Center
Sun 11:57:24 PM 37.8914 -109.1517 274° West 487 560 43,000  Level Denver Center
Sun 11:58:25 PM 37.9008 -109.3414 274° West 486 559 43,000  Level Denver Center
Sun 11:59:26 PM 37.9089 -109.5047 274° West 486 559 43,000  Level Denver Center
Mon 12:00:27 AM 37.9156 -109.6675 273° West 486 559 43,000  Level Denver Center
Mon 12:01:28 AM 37.9250 -109.8583 274° West 488 562 43,000  Level Denver Center
Mon 12:02:29 AM 37.9303 -109.9939 273° West 485 558 43,000  Level Denver Center
Mon 12:03:30 AM 37.9378 -110.1864 273° West 488 562 43,000  Level Denver Center
Mon 12:04:31 AM 37.9453 -110.3761 273° West 484 557 43,000  Level Denver Center
Mon 12:05:32 AM 37.9525 -110.5394 273° West 486 559 43,000  Level Denver Center
Mon 12:06:33 AM 37.9589 -110.7050 273° West 482 555 43,000  Level Denver Center
Mon 12:07:34 AM 37.9644 -110.8733 272° West 481 554 43,000  Level Denver Center
Mon 12:08:35 AM 37.9697 -111.0419 272° West 483 556 43,000  Level Denver Center
Mon 12:09:36 AM 37.9753 -111.2097 272° West 478 550 43,000  Level Denver Center
Mon 12:10:37 AM 37.9817 -111.4106 272° West 477 549 43,000  Level Denver Center
Mon 12:11:38 AM 37.9878 -111.5786 273° West 478 550 43,000  Level Denver Center
Mon 12:12:39 AM 37.9925 -111.7461 272° West 478 550 43,000  Level Denver Center
Mon 12:13:39 AM 37.9978 -111.9139 272° West 478 550 43,000  Level Denver Center
Mon 12:14:44 AM 38.0022 -112.0806 272° West 476 548 43,000  Level Salt Lake Center
Mon 12:15:45 AM 38.0058 -112.2494 272° West 480 552 43,000  Level Salt Lake Center
Mon 12:16:46 AM 38.0097 -112.4167 272° West 479 551 43,000  Level Salt Lake Center
Mon 12:17:47 AM 38.0144 -112.6169 272° West 478 550 43,000  Level Salt Lake Center
Mon 12:18:48 AM 38.0167 -112.7833 271° West 478 550 43,000  Level Salt Lake Center
Mon 12:19:49 AM 38.0200 -112.9497 272° West 478 550 43,000  Level Salt Lake Center
Mon 12:20:50 AM 38.0219 -113.1147 271° West 474 545 43,000  Level Salt Lake Center
Mon 12:21:52 AM 38.0242 -113.2806 271° West 476 548 43,000  Level Salt Lake Center
Mon 12:22:53 AM 38.0258 -113.4469 271° West 476 548 43,000  Level Salt Lake Center
Mon 12:23:54 AM 38.0283 -113.6125 271° West 474 545 43,000  Level Salt Lake Center
Mon 12:24:55 AM 38.0300 -113.7786 271° West 473 544 43,000  Level Salt Lake Center
Mon 12:25:56 AM 38.0325 -113.9797 271° West 478 550 43,000  Level Salt Lake Center
Mon 12:26:57 AM 38.0342 -114.1458 271° West 474 545 43,000  Level Salt Lake Center
Mon 12:27:58 AM 38.0336 -114.3094 270° West 468 539 43,000  Level Salt Lake Center
Mon 12:28:59 AM 38.0358 -114.4728 271° West 464 534 43,000  Level Salt Lake Center
Mon 12:30:00 AM 38.0361 -114.6361 270° West 465 535 43,000  Level Salt Lake Center
Mon 12:31:01 AM 38.0367 -114.7986 270° West 463 533 43,000  Level Salt Lake Center
Mon 12:32:02 AM 38.0369 -114.9803 270° West 464 534 43,000  Level Salt Lake Center
Mon 12:33:04 AM 38.0356 -115.1431 269° West 463 533 43,000  Level Salt Lake Center
Mon 12:34:05 AM 38.0361 -115.3069 270° West 465 535 43,000  Level Salt Lake Center
Mon 12:35:06 AM 38.0347 -115.4708 269° West 465 535 43,000  Level Salt Lake Center
Mon 12:36:07 AM 38.0336 -115.6347 270° West 464 534 43,000  Level Salt Lake Center
Mon 12:37:08 AM 38.0328 -115.7981 270° West 465 535 43,000  Level Salt Lake Center
Mon 12:38:09 AM 38.0314 -115.9631 269° West 467 537 43,000  Level Salt Lake Center
Mon 12:39:10 AM 38.0306 -116.1264 270° West 465 535 43,000  Level Salt Lake Center
Mon 12:40:11 AM 38.0286 -116.2900 269° West 465 535 43,000  Level Salt Lake Center
Mon 12:40:44 AM 38.0275 -116.3875 269° West 462 532 43,000  Level Oakland Center
Mon 12:41:12 AM 38.0264 -116.4525 269° West 461 531 43,000  Level Salt Lake Center
Mon 12:42:13 AM 38.0247 -116.6147 269° West 459 528 43,000  Level Salt Lake Center
Mon 12:43:14 AM 38.0222 -116.7750 269° West 456 525 43,000  Level Salt Lake Center
Mon 12:44:15 AM 38.0197 -116.9375 269° West 458 527 43,000  Level Salt Lake Center
Mon 12:44:47 AM 38.0178 -117.0344 269° West 456 525 43,000  Level Oakland Center
Mon 12:45:48 AM 38.0153 -117.1997 269° West 457 526 43,000  Level Oakland Center
Mon 12:46:49 AM 38.0111 -117.3639 268° West 454 522 43,000  Level Oakland Center
Mon 12:47:50 AM 38.0083 -117.5247 269° West 453 521 43,000  Level Oakland Center
Mon 12:48:50 AM 38.0050 -117.6833 269° West 449 517 43,000  Level Oakland Center
Mon 12:49:51 AM 38.0008 -117.8422 268° West 450 518 43,000  Level Oakland Center
Mon 12:50:52 AM 37.9942 -117.9992 267° West 447 514 43,000  Level Oakland Center
Mon 12:51:53 AM 37.9878 -118.1567 267° West 447 514 43,000  Level Oakland Center
Mon 12:52:54 AM 37.9822 -118.3128 267° West 446 513 43,000  Level Oakland Center
Mon 12:53:54 AM 37.9761 -118.4703 267° West 448 516 43,000  Level Oakland Center
Mon 12:54:55 AM 37.9689 -118.6283 267° West 448 516 43,000  Level Oakland Center
Mon 12:55:56 AM 37.9619 -118.7847 267° West 446 513 43,000  Level Oakland Center
Mon 12:56:57 AM 37.9564 -118.9417 267° West 447 514 43,000  Level Oakland Center
Mon 12:57:58 AM 37.9481 -119.0986 266° West 447 514 43,000  Level Oakland Center
Mon 12:58:58 AM 37.9403 -119.2819 267° West 446 513 43,000  Level Oakland Center
Mon 12:59:59 AM 37.9333 -119.4378 267° West 444 511 43,000 -836 Level Oakland Center
Mon 01:01:00 AM 37.9247 -119.5936 266° West 442 509 41,300 -2,066 Descending Oakland Center
Mon 01:02:01 AM 37.9167 -119.7489 266° West 443 510 38,800 -2,459 Descending Oakland Center
Mon 01:03:02 AM 37.9092 -119.9044 267° West 444 511 36,300 -2,579 Descending Oakland Center
Mon 01:04:02 AM 37.9008 -120.0681 266° West 461 531 33,600 -2,628 Descending Oakland Center
Mon 01:05:03 AM 37.8903 -120.2319 265° West 467 537 31,000 -2,557 Descending Oakland Center
Mon 01:06:04 AM 37.8819 -120.3944 266° West 463 533 28,400 -2,557 Descending Oakland Center
Mon 01:07:05 AM 37.8728 -120.5547 266° West 459 528 25,800 -2,459 Descending Oakland Center
Mon 01:08:06 AM 37.8633 -120.7092 266° West 443 510 23,400 -2,419 Descending Oakland Center
Mon 01:09:14 AM 37.8500 -120.9000 265° West 420 483 20,600 -2,250 Descending Northern Cal TRACON
Mon 01:10:14 AM 37.8500 -121.0333 270° West 404 465 18,600 -2,143 Descending Northern Cal TRACON
Mon 01:11:20 AM 37.8333 -121.1833 262° West 430 495 16,100 -2,100 Descending Northern Cal TRACON
Mon 01:12:14 AM 37.7833 -121.3000 242° Southwest 378 435 14,400 -1,895 Descending Northern Cal TRACON
Mon 01:13:14 AM 37.7500 -121.4167 250° West 363 418 12,500 -1,729 Descending Northern Cal TRACON
Mon 01:15:11 AM 37.6792 -121.6078 245° Southwest 305 351 9,300 -1,621 Descending Oakland Center
Mon 01:16:08 AM 37.6500 -121.7000 248° West 281 323 7,800 -1,385 Descending Northern Cal TRACON
Mon 01:17:08 AM 37.6167 -121.7833 243° Southwest 271 312 6,600 -1,200 Descending Northern Cal TRACON
Mon 01:18:08 AM 37.6167 -121.8833 270° West 264 304 5,400 -1,300 Descending Northern Cal TRACON
Mon 01:19:08 AM 37.6500 -121.9667 297° West 261 300 4,000 -1,300 Descending Northern Cal TRACON
Mon 01:20:08 AM 37.6667 -122.0333 288° West 227 261 2,800 -1,031 Descending Northern Cal TRACON
Mon 01:21:16 AM 37.6919 -122.1044 294° West 222 255 1,800 -837 Descending Oakland Center
Mon 01:22:17 AM 37.7089 -122.1558 293° West 188 216 1,000 -793 Descending Oakland Center
Mon 01:23:17 AM 37.7225 -122.1983 292° West 157 181 200 -800 Descending Oakland Center
Mon 01:25:00 AM 37.7167 -122.2167 270° West  Level FlightAware Approximate

Login

Don't have an account? Register now (free) for customized features, flight alerts, and more!